You are listening to:
YBBN Gnd/Twr/App/Dep - Brisbane, Queensland, Australia

YBBN 061030Z AUTO 32007KT 9999 // NCD 12/09 Q1010

If stream doesn't start automatically press the play button
If stream stops then reload player then press play